METAR UND TAF INFORMATION
LRCK 161130Z 13011KT 9999 FEW045TCU 27/14 Q1017 NOSIG

 FLUGHAFENKARTE

 RUNWAY INFORMATION
Runway 18 Runway length 11483 ft Runway width 148 ft
Runway elevation 353 ft Runway displaced threshold 3270 ft Runway heading 186
Runway 36 Runway length 11483 ft Runway width 148 ft
Runway elevation 315 ft Runway displaced threshold 4990 ft Runway heading 6

 AIRPORT FREQUENCIES
Type APP Name BUCURESTI Frequency 122.9 MHZ
Type ATIS Name ATIS Frequency 118.75 MHZ
Type TWR Name TWR Frequency 120.45 MHZ

 AIRPORT NEAR NAVIGATION AIDS
Type VOR-DME Name Constanta Frequency 112700 KHZ